<?xml version="1.0" encoding="UTF-8" standalone="no" ?>
<gpx xmlns="http://www.topografix.com/GPX/1/1" xmlns:xsi="http://www.w3.org/2001/XMLSchema-instance" xsi:schemaLocation="http://www.topografix.com/GPX/1/1 http://www.topografix.com/GPX/1/1/gpx.xsd" version="1.1" creator="VisuGPX - https://www.visugpx.com">
  <metadata>
    <name>14049418-BOIS DE ROCHEFORT 21</name>
  </metadata>
  <trk>
    <name><![CDATA[14049418-BOIS DE ROCHEFORT 21]]></name>
    <trkseg>
      <trkpt lat="48.59173" lon="1.96549">
        <ele>121</ele>
        <time>2021-12-21T13:19:19Z</time>
      </trkpt>
      <trkpt lat="48.59073" lon="1.96925">
        <ele>120</ele>
        <time>2021-12-21T13:22:54Z</time>
      </trkpt>
      <trkpt lat="48.59006" lon="1.97148">
        <ele>120</ele>
        <time>2021-12-21T13:25:03Z</time>
      </trkpt>
      <trkpt lat="48.59087" lon="1.97321">
        <ele>125</ele>
        <time>2021-12-21T13:26:56Z</time>
      </trkpt>
      <trkpt lat="48.59321" lon="1.96881">
        <ele>143</ele>
        <time>2021-12-21T13:31:55Z</time>
      </trkpt>
      <trkpt lat="48.59397" lon="1.96701">
        <ele>143</ele>
        <time>2021-12-21T13:33:48Z</time>
      </trkpt>
      <trkpt lat="48.59452" lon="1.96838">
        <ele>152</ele>
        <time>2021-12-21T13:35:13Z</time>
      </trkpt>
      <trkpt lat="48.59404" lon="1.96906">
        <ele>155</ele>
        <time>2021-12-21T13:36:05Z</time>
      </trkpt>
      <trkpt lat="48.59449" lon="1.97134">
        <ele>155</ele>
        <time>2021-12-21T13:38:11Z</time>
      </trkpt>
      <trkpt lat="48.59421" lon="1.97275">
        <ele>150</ele>
        <time>2021-12-21T13:39:29Z</time>
      </trkpt>
      <trkpt lat="48.59489" lon="1.97297">
        <ele>147</ele>
        <time>2021-12-21T13:40:25Z</time>
      </trkpt>
      <trkpt lat="48.59483" lon="1.9752">
        <ele>142</ele>
        <time>2021-12-21T13:42:23Z</time>
      </trkpt>
      <trkpt lat="48.59415" lon="1.97657">
        <ele>154</ele>
        <time>2021-12-21T13:43:54Z</time>
      </trkpt>
      <trkpt lat="48.59526" lon="1.97992">
        <ele>161</ele>
        <time>2021-12-21T13:47:12Z</time>
      </trkpt>
      <trkpt lat="48.59733" lon="1.98232">
        <ele>146</ele>
        <time>2021-12-21T13:50:41Z</time>
      </trkpt>
      <trkpt lat="48.5996" lon="1.97773">
        <ele>122</ele>
        <time>2021-12-21T13:55:45Z</time>
      </trkpt>
      <trkpt lat="48.60548" lon="1.98344">
        <ele>107</ele>
        <time>2021-12-21T14:05:04Z</time>
      </trkpt>
      <trkpt lat="48.60735" lon="1.98267">
        <ele>107</ele>
        <time>2021-12-21T14:07:39Z</time>
      </trkpt>
      <trkpt lat="48.60803" lon="1.97966">
        <ele>108</ele>
        <time>2021-12-21T14:10:28Z</time>
      </trkpt>
      <trkpt lat="48.60145" lon="1.97327">
        <ele>145</ele>
        <time>2021-12-21T14:20:54Z</time>
      </trkpt>
      <trkpt lat="48.59974" lon="1.97705">
        <ele>120</ele>
        <time>2021-12-21T14:24:56Z</time>
      </trkpt>
      <trkpt lat="48.59761" lon="1.97275">
        <ele>131</ele>
        <time>2021-12-21T14:29:41Z</time>
      </trkpt>
      <trkpt lat="48.59659" lon="1.97057">
        <ele>138</ele>
        <time>2021-12-21T14:32:02Z</time>
      </trkpt>
      <trkpt lat="48.59886" lon="1.96593">
        <ele>156</ele>
        <time>2021-12-21T14:37:08Z</time>
      </trkpt>
      <trkpt lat="48.596" lon="1.9631">
        <ele>155</ele>
        <time>2021-12-21T14:41:41Z</time>
      </trkpt>
      <trkpt lat="48.59861" lon="1.95692">
        <ele>127</ele>
        <time>2021-12-21T14:48:10Z</time>
      </trkpt>
      <trkpt lat="48.60008" lon="1.95692">
        <ele>126</ele>
        <time>2021-12-21T14:50:07Z</time>
      </trkpt>
      <trkpt lat="48.60113" lon="1.95881">
        <ele>123</ele>
        <time>2021-12-21T14:52:18Z</time>
      </trkpt>
      <trkpt lat="48.60241" lon="1.95885">
        <ele>121</ele>
        <time>2021-12-21T14:54:01Z</time>
      </trkpt>
      <trkpt lat="48.6023" lon="1.96022">
        <ele>131</ele>
        <time>2021-12-21T14:55:14Z</time>
      </trkpt>
      <trkpt lat="48.60255" lon="1.96177">
        <ele>143</ele>
        <time>2021-12-21T14:56:38Z</time>
      </trkpt>
      <trkpt lat="48.60312" lon="1.96327">
        <ele>146</ele>
        <time>2021-12-21T14:58:10Z</time>
      </trkpt>
      <trkpt lat="48.60278" lon="1.96451">
        <ele>142</ele>
        <time>2021-12-21T14:59:21Z</time>
      </trkpt>
      <trkpt lat="48.60318" lon="1.96683">
        <ele>142</ele>
        <time>2021-12-21T15:01:28Z</time>
      </trkpt>
      <trkpt lat="48.60391" lon="1.96786">
        <ele>145</ele>
        <time>2021-12-21T15:02:48Z</time>
      </trkpt>
      <trkpt lat="48.60587" lon="1.96975">
        <ele>129</ele>
        <time>2021-12-21T15:05:54Z</time>
      </trkpt>
      <trkpt lat="48.60643" lon="1.9706">
        <ele>121</ele>
        <time>2021-12-21T15:06:57Z</time>
      </trkpt>
      <trkpt lat="48.60472" lon="1.97233">
        <ele>122</ele>
        <time>2021-12-21T15:09:42Z</time>
      </trkpt>
      <trkpt lat="48.60308" lon="1.97006">
        <ele>128</ele>
        <time>2021-12-21T15:12:40Z</time>
      </trkpt>
      <trkpt lat="48.60244" lon="1.96829">
        <ele>130</ele>
        <time>2021-12-21T15:14:27Z</time>
      </trkpt>
      <trkpt lat="48.6021" lon="1.96542">
        <ele>137</ele>
        <time>2021-12-21T15:17:01Z</time>
      </trkpt>
      <trkpt lat="48.60181" lon="1.96314">
        <ele>139</ele>
        <time>2021-12-21T15:19:04Z</time>
      </trkpt>
      <trkpt lat="48.60145" lon="1.961">
        <ele>137</ele>
        <time>2021-12-21T15:21:01Z</time>
      </trkpt>
      <trkpt lat="48.59739" lon="1.96923">
        <ele>145</ele>
        <time>2021-12-21T15:30:05Z</time>
      </trkpt>
      <trkpt lat="48.59444" lon="1.96645">
        <ele>145</ele>
        <time>2021-12-21T15:34:43Z</time>
      </trkpt>
      <trkpt lat="48.59321" lon="1.96481">
        <ele>133</ele>
        <time>2021-12-21T15:36:54Z</time>
      </trkpt>
      <trkpt lat="48.59199" lon="1.96559">
        <ele>123</ele>
        <time>2021-12-21T15:38:40Z</time>
      </trkpt>
    </trkseg>
  </trk>
</gpx>